Time;durP1;ratioP1;P1;durP2;ratioP2;P2;SDS_P1;SDS_P2;PMS_P1;PMS_P2;Temp;Humidity;BMP_temperature;BMP_pressure;BME280_temperature;BME280_humidity;BME280_pressure;Samples;Min_cycle;Max_cycle;Signal;HPM_P1;HPM_P2
2023/03/12 00:01:16;;;;;;;12.73;6.77;;;4.80;48.60;;;;;;5069831;28;20463;-86
2023/03/12 00:03:44;;;;;;;9.63;5.93;;;4.30;49.40;;;;;;5043379;28;20539;-87
2023/03/12 00:06:12;;;;;;;11.30;7.80;;;4.10;50.50;;;;;;5067767;28;20824;-85
2023/03/12 00:08:39;;;;;;;14.37;7.20;;;4.30;50.20;;;;;;5056667;28;20444;-86
2023/03/12 00:11:08;;;;;;;12.03;5.43;;;4.50;49.70;;;;;;5058128;28;20456;-86
2023/03/12 00:13:35;;;;;;;11.67;5.73;;;4.60;49.30;;;;;;5068093;28;20479;-86
2023/03/12 00:16:08;;;;;;;13.50;6.70;;;4.70;49.10;;;;;;5032440;28;20456;-85
2023/03/12 00:18:35;;;;;;;11.10;6.30;;;4.70;48.70;;;;;;5044127;28;20439;-86
2023/03/12 00:21:02;;;;;;;14.80;7.10;;;4.80;48.60;;;;;;5036386;28;20521;-85
2023/03/12 00:23:30;;;;;;;14.93;7.43;;;4.80;48.40;;;;;;5058888;28;20563;-88
2023/03/12 00:26:01;;;;;;;12.00;6.60;;;4.80;48.50;;;;;;5037034;28;21460;-87
2023/03/12 00:28:28;;;;;;;14.07;7.53;;;4.80;48.40;;;;;;5053136;28;20466;-85
2023/03/12 00:30:57;;;;;;;9.60;6.67;;;4.80;48.30;;;;;;5041727;28;20532;-86
2023/03/12 00:33:24;;;;;;;9.43;6.40;;;4.80;48.20;;;;;;5042730;28;20460;-86
2023/03/12 00:35:51;;;;;;;10.23;6.00;;;4.80;48.30;;;;;;5042746;28;20463;-86
2023/03/12 00:38:18;;;;;;;12.70;7.40;;;4.70;49.10;;;;;;5041872;28;20459;-85
2023/03/12 00:40:47;;;;;;;11.10;7.30;;;4.50;49.60;;;;;;5048813;28;20532;-86
2023/03/12 00:43:14;;;;;;;10.93;6.13;;;4.20;50.70;;;;;;5029523;28;20483;-85
2023/03/12 00:45:41;;;;;;;6.53;5.20;;;4.30;49.90;;;;;;5051912;28;20447;-85
2023/03/12 00:48:08;;;;;;;9.90;5.90;;;4.30;49.50;;;;;;5054479;28;20971;-86
2023/03/12 00:50:35;;;;;;;10.53;6.70;;;4.20;49.70;;;;;;5059709;28;20463;-85
2023/03/12 00:53:02;;;;;;;11.83;6.60;;;4.20;49.80;;;;;;5034519;28;20551;-85
2023/03/12 00:55:29;;;;;;;10.00;6.57;;;4.40;49.40;;;;;;5050749;28;20452;-85
2023/03/12 00:57:57;;;;;;;10.43;5.67;;;4.50;48.90;;;;;;5036411;28;20440;-86
2023/03/12 01:00:24;;;;;;;10.17;5.50;;;4.50;48.90;;;;;;5018691;28;20443;-86
2023/03/12 01:02:51;;;;;;;13.33;6.27;;;4.50;48.80;;;;;;5034476;28;20468;-86
2023/03/12 01:05:18;;;;;;;8.53;6.00;;;4.50;48.70;;;;;;5052512;28;20493;-88
2023/03/12 01:07:45;;;;;;;8.50;5.70;;;4.50;48.70;;;;;;5041453;28;20743;-86
2023/03/12 01:10:15;;;;;;;8.93;6.47;;;4.50;48.90;;;;;;5057839;28;20448;-85
2023/03/12 01:12:43;;;;;;;10.90;6.10;;;4.40;48.80;;;;;;5067312;28;20471;-85
2023/03/12 01:15:14;;;;;;;12.67;5.83;;;4.40;48.90;;;;;;5051345;28;20453;-86
2023/03/12 01:17:41;;;;;;;17.87;6.30;;;4.30;48.60;;;;;;5043407;28;20463;-85
2023/03/12 01:20:10;;;;;;;18.10;6.13;;;4.20;49.10;;;;;;5018382;28;21003;-86
2023/03/12 01:22:37;;;;;;;13.03;7.17;;;4.20;49.60;;;;;;5054514;28;20444;-88
2023/03/12 01:25:05;;;;;;;8.17;6.20;;;4.30;49.60;;;;;;5050069;28;20441;-84
2023/03/12 01:27:32;;;;;;;10.20;5.70;;;4.30;49.40;;;;;;5044597;28;20455;-87
2023/03/12 01:29:59;;;;;;;10.03;5.60;;;4.40;49.30;;;;;;5058511;28;20479;-86
2023/03/12 01:32:27;;;;;;;9.70;6.97;;;4.50;49.40;;;;;;5052002;28;20538;-86
2023/03/12 01:34:54;;;;;;;14.13;7.57;;;4.50;49.40;;;;;;5024350;28;20990;-86
2023/03/12 01:37:21;;;;;;;13.90;6.43;;;4.50;49.70;;;;;;5034582;28;20460;-86
2023/03/12 01:39:48;;;;;;;15.50;6.57;;;4.40;50.00;;;;;;5041545;28;20452;-86
2023/03/12 01:42:15;;;;;;;12.20;6.43;;;4.50;50.00;;;;;;5023814;28;20455;-86
2023/03/12 01:44:50;;;;;;;11.70;6.50;;;4.50;50.00;;;;;;5050550;28;20476;-84
2023/03/12 01:47:17;;;;;;;13.53;6.73;;;4.50;50.60;;;;;;5053798;28;20459;-85
2023/03/12 01:49:46;;;;;;;9.23;6.43;;;4.50;50.70;;;;;;5036506;28;20449;-85
2023/03/12 01:52:15;;;;;;;8.87;6.57;;;4.50;50.80;;;;;;5051030;28;20576;-84
2023/03/12 01:54:53;;;;;;;8.23;6.20;;;4.50;50.70;;;;;;5054078;28;20500;-85
2023/03/12 01:57:23;;;;;;;11.10;7.90;;;4.60;50.80;;;;;;5028503;28;20618;-85
2023/03/12 01:59:53;;;;;;;13.77;6.90;;;4.60;50.90;;;;;;5044661;28;20531;-82
2023/03/12 02:02:25;;;;;;;10.67;6.63;;;4.70;50.90;;;;;;5054426;28;20441;-82
2023/03/12 02:05:02;;;;;;;19.77;7.70;;;4.70;51.00;;;;;;5040570;28;20560;-86
2023/03/12 02:07:29;;;;;;;13.67;7.33;;;4.70;50.90;;;;;;5035559;28;20557;-84
2023/03/12 02:09:57;;;;;;;14.90;7.60;;;4.70;51.30;;;;;;5054587;28;20945;-83
2023/03/12 02:12:24;;;;;;;14.30;8.00;;;4.80;51.20;;;;;;5031243;28;20552;-85
2023/03/12 02:14:52;;;;;;;8.03;6.97;;;4.80;51.20;;;;;;5029402;28;20464;-85
2023/03/12 02:17:19;;;;;;;13.00;7.43;;;4.80;50.90;;;;;;5044491;28;20444;-82
2023/03/12 02:19:54;;;;;;;14.73;8.57;;;4.80;50.60;;;;;;5055390;28;21054;-85
2023/03/12 02:22:23;;;;;;;18.13;8.10;;;4.70;51.10;;;;;;5038042;28;20529;-82
2023/03/12 02:25:00;;;;;;;12.67;7.70;;;4.60;51.20;;;;;;5052085;28;20459;-85
2023/03/12 02:27:30;;;;;;;9.37;7.70;;;4.60;51.90;;;;;;5043488;28;20444;-84
2023/03/12 02:29:57;;;;;;;13.07;7.60;;;4.70;51.60;;;;;;5027825;28;20579;-84
2023/03/12 02:32:28;;;;;;;12.93;8.70;;;4.80;51.40;;;;;;5058524;28;20455;-84
2023/03/12 02:34:56;;;;;;;13.00;7.53;;;4.80;51.10;;;;;;5061541;28;20452;-84
2023/03/12 02:37:23;;;;;;;12.60;8.47;;;4.80;51.20;;;;;;5036503;28;20448;-84
2023/03/12 02:39:57;;;;;;;17.53;8.40;;;4.80;51.20;;;;;;5036513;28;20447;-82
2023/03/12 02:42:24;;;;;;;14.90;8.27;;;4.70;52.10;;;;;;5054227;28;20460;-85
2023/03/12 02:44:53;;;;;;;15.07;8.40;;;4.70;51.80;;;;;;5025330;28;20486;-84
2023/03/12 02:47:20;;;;;;;13.80;7.93;;;4.80;51.60;;;;;;5028452;28;20444;-84
2023/03/12 02:49:48;;;;;;;10.53;7.83;;;4.80;51.40;;;;;;5053837;28;20962;-84
2023/03/12 02:52:15;;;;;;;11.23;8.50;;;4.80;51.50;;;;;;5069365;28;20447;-84
2023/03/12 02:54:42;;;;;;;16.43;9.50;;;4.80;51.40;;;;;;5040127;28;20473;-82
2023/03/12 02:57:10;;;;;;;16.13;8.30;;;4.90;51.30;;;;;;5060437;28;20440;-82
2023/03/12 02:59:38;;;;;;;10.43;7.00;;;4.40;52.40;;;;;;5036632;28;20969;-85
2023/03/12 03:02:08;;;;;;;8.37;7.00;;;4.50;52.90;;;;;;5036870;28;20835;-84
2023/03/12 03:04:35;;;;;;;8.97;7.00;;;4.60;52.60;;;;;;5068947;28;20487;-85
2023/03/12 03:07:02;;;;;;;10.90;6.73;;;4.60;52.40;;;;;;5045569;28;20460;-83
2023/03/12 03:09:29;;;;;;;11.70;7.33;;;4.50;52.30;;;;;;5053434;28;20453;-84
2023/03/12 03:11:56;;;;;;;11.93;8.90;;;4.40;52.60;;;;;;5037698;28;20962;-86
2023/03/12 03:14:25;;;;;;;13.60;8.30;;;4.40;53.10;;;;;;5035661;28;20461;-85
2023/03/12 03:16:52;;;;;;;14.00;8.03;;;4.60;52.80;;;;;;5067998;28;20550;-84
2023/03/12 03:19:23;;;;;;;12.17;7.97;;;4.60;52.50;;;;;;5060843;28;20447;-85
2023/03/12 03:21:50;;;;;;;8.63;6.30;;;4.70;52.50;;;;;;5040891;28;20446;-84
2023/03/12 03:24:18;;;;;;;15.80;7.40;;;4.70;52.20;;;;;;5038326;28;20971;-84
2023/03/12 03:26:44;;;;;;;10.50;7.07;;;4.80;51.90;;;;;;5029156;28;20454;-85
2023/03/12 03:29:11;;;;;;;13.93;8.90;;;4.80;51.80;;;;;;5044603;28;20543;-84
2023/03/12 03:31:38;;;;;;;8.77;6.60;;;4.80;51.90;;;;;;5041308;28;20436;-84
2023/03/12 03:34:06;;;;;;;10.20;6.30;;;4.80;51.70;;;;;;5037888;28;20491;-84
2023/03/12 03:36:34;;;;;;;13.80;6.87;;;4.90;51.80;;;;;;5038407;28;20470;-85
2023/03/12 03:39:12;;;;;;;8.33;6.97;;;4.90;52.20;;;;;;5055551;28;20811;-82
2023/03/12 03:41:39;;;;;;;10.93;7.00;;;4.90;51.90;;;;;;5041973;28;20531;-85
2023/03/12 03:44:06;;;;;;;11.80;6.97;;;4.90;52.30;;;;;;5063634;28;21032;-84
2023/03/12 03:46:36;;;;;;;15.17;7.30;;;4.90;51.70;;;;;;5024546;28;20455;-85
2023/03/12 03:49:12;;;;;;;9.07;6.63;;;4.90;51.60;;;;;;5046820;28;20448;-84
2023/03/12 03:51:42;;;;;;;9.97;7.27;;;4.90;51.60;;;;;;5030379;28;20475;-84
2023/03/12 03:54:13;;;;;;;9.13;6.40;;;4.90;51.40;;;;;;5029491;28;20996;-84
2023/03/12 03:56:41;;;;;;;9.40;6.43;;;4.90;51.30;;;;;;5052361;28;20441;-84
2023/03/12 03:59:09;;;;;;;11.30;7.70;;;5.00;51.40;;;;;;5053191;28;20462;-82
2023/03/12 04:01:39;;;;;;;12.17;7.50;;;5.00;51.40;;;;;;5030904;28;20441;-84
2023/03/12 04:04:06;;;;;;;10.50;7.13;;;5.00;51.30;;;;;;5043511;28;20482;-83
2023/03/12 04:06:34;;;;;;;13.33;7.30;;;5.00;51.10;;;;;;5046571;28;20880;-86
2023/03/12 04:09:03;;;;;;;17.87;7.13;;;5.00;51.10;;;;;;5008227;28;20453;-84
2023/03/12 04:11:31;;;;;;;14.50;7.80;;;5.00;51.20;;;;;;5036724;28;20446;-84
2023/03/12 04:13:59;;;;;;;12.43;7.10;;;4.80;51.50;;;;;;4989281;28;20985;-84
2023/03/12 04:16:30;;;;;;;11.20;7.20;;;4.70;52.70;;;;;;5022262;28;21014;-85
2023/03/12 04:18:58;;;;;;;11.10;6.93;;;4.80;52.00;;;;;;5048519;28;20472;-84
2023/03/12 04:21:26;;;;;;;11.80;7.83;;;4.80;51.90;;;;;;5005107;28;20510;-84
2023/03/12 04:23:53;;;;;;;13.73;7.90;;;4.80;51.50;;;;;;5039359;28;20508;-84
2023/03/12 04:26:24;;;;;;;11.97;7.07;;;4.80;51.10;;;;;;5009367;28;20528;-85
2023/03/12 04:28:52;;;;;;;10.80;7.30;;;4.80;51.40;;;;;;5003482;28;20813;-83
2023/03/12 04:31:19;;;;;;;11.67;7.37;;;4.80;51.50;;;;;;5019499;28;20485;-85
2023/03/12 04:33:50;;;;;;;16.00;7.97;;;4.80;51.50;;;;;;5025747;28;20464;-86
2023/03/12 04:36:18;;;;;;;16.30;7.83;;;4.90;51.80;;;;;;5031025;28;20499;-83
2023/03/12 04:38:48;;;;;;;14.13;8.37;;;4.90;52.50;;;;;;5050047;28;20449;-83
2023/03/12 04:41:18;;;;;;;17.43;9.30;;;4.80;52.30;;;;;;5007388;28;20453;-83
2023/03/12 04:44:06;;;;;;;9.33;7.03;;;4.80;52.30;;;;;;5020883;28;20468;-84
2023/03/12 04:46:35;;;;;;;12.70;6.67;;;4.90;52.40;;;;;;5023439;28;20457;-84
2023/03/12 04:49:02;;;;;;;11.97;7.90;;;4.90;52.30;;;;;;5007873;28;20459;-85
2023/03/12 04:51:31;;;;;;;14.93;7.77;;;4.90;52.40;;;;;;5016938;28;21225;-84
2023/03/12 04:53:59;;;;;;;13.07;7.20;;;4.90;52.40;;;;;;5022515;28;20453;-84
2023/03/12 04:56:26;;;;;;;19.50;8.70;;;4.90;52.70;;;;;;5021176;28;20458;-85
2023/03/12 04:58:53;;;;;;;11.97;7.53;;;4.90;52.50;;;;;;5021617;28;20482;-82
2023/03/12 05:01:25;;;;;;;12.97;7.80;;;4.80;52.60;;;;;;5008489;28;20505;-85
2023/03/12 05:03:53;;;;;;;9.80;7.20;;;4.80;52.60;;;;;;5025298;28;20508;-83
2023/03/12 05:06:21;;;;;;;14.83;8.37;;;4.90;52.90;;;;;;5048093;28;20532;-86
2023/03/12 05:08:48;;;;;;;13.67;8.30;;;4.90;52.90;;;;;;5041459;28;20461;-84
2023/03/12 05:11:16;;;;;;;11.83;7.60;;;5.00;52.90;;;;;;5025631;28;20451;-84
2023/03/12 05:13:44;;;;;;;10.73;8.17;;;5.00;52.70;;;;;;5020162;28;20473;-85
2023/03/12 05:16:12;;;;;;;10.13;8.20;;;5.00;52.60;;;;;;5000686;28;20535;-85
2023/03/12 05:18:40;;;;;;;10.33;7.60;;;5.10;52.70;;;;;;5005563;28;20480;-85
2023/03/12 05:21:11;;;;;;;10.40;7.27;;;5.10;52.60;;;;;;5023226;28;20547;-84
2023/03/12 05:23:41;;;;;;;12.73;8.00;;;5.10;52.80;;;;;;5007535;28;20513;-84
2023/03/12 05:26:17;;;;;;;12.50;7.70;;;5.10;52.80;;;;;;5040636;28;20445;-85
2023/03/12 05:28:44;;;;;;;10.93;7.30;;;5.10;53.00;;;;;;5039397;28;20759;-84
2023/03/12 05:31:12;;;;;;;11.13;7.43;;;5.10;53.50;;;;;;5022804;28;21126;-84
2023/03/12 05:33:41;;;;;;;16.37;8.17;;;5.20;52.70;;;;;;5039582;28;20476;-85
2023/03/12 05:36:09;;;;;;;9.53;7.80;;;5.10;52.80;;;;;;5042289;28;20478;-85
2023/03/12 05:38:37;;;;;;;14.30;7.43;;;5.10;52.70;;;;;;5040660;28;20457;-86
2023/03/12 05:41:05;;;;;;;10.97;7.33;;;5.20;52.80;;;;;;5061293;28;20435;-84
2023/03/12 05:43:35;;;;;;;12.50;8.47;;;5.10;52.90;;;;;;5057119;28;20483;-84
2023/03/12 05:46:04;;;;;;;15.03;8.50;;;5.10;53.10;;;;;;5038500;28;20583;-84
2023/03/12 05:48:33;;;;;;;10.90;7.60;;;5.10;52.90;;;;;;5030502;28;20452;-85
2023/03/12 05:51:02;;;;;;;12.87;7.07;;;5.10;53.00;;;;;;5044738;28;20506;-85
2023/03/12 05:53:29;;;;;;;14.60;8.60;;;5.10;53.00;;;;;;5053092;28;21051;-82
2023/03/12 05:56:03;;;;;;;13.20;8.07;;;4.90;53.40;;;;;;5046092;28;20948;-85
2023/03/12 05:58:31;;;;;;;11.87;7.60;;;4.70;53.60;;;;;;5048651;28;20527;-85
2023/03/12 06:00:58;;;;;;;14.83;8.30;;;4.70;53.90;;;;;;5056534;28;20453;-83
2023/03/12 06:03:25;;;;;;;14.07;8.67;;;4.50;54.30;;;;;;5072768;28;20567;-85
2023/03/12 06:05:55;;;;;;;13.70;8.57;;;4.70;54.30;;;;;;5040300;28;20842;-83
2023/03/12 06:08:24;;;;;;;17.37;8.90;;;4.80;53.70;;;;;;5057862;28;20526;-84
2023/03/12 06:10:53;;;;;;;13.00;9.07;;;4.80;53.70;;;;;;5030784;28;20539;-85
2023/03/12 06:13:22;;;;;;;11.73;7.97;;;4.80;54.00;;;;;;5046697;28;20854;-83
2023/03/12 06:15:49;;;;;;;13.50;7.77;;;4.80;54.30;;;;;;5042307;28;20500;-84
2023/03/12 06:18:16;;;;;;;13.93;8.43;;;4.80;54.50;;;;;;5066119;28;20585;-84
2023/03/12 06:20:43;;;;;;;13.63;8.50;;;5.00;54.20;;;;;;5064806;28;20463;-85
2023/03/12 06:23:10;;;;;;;15.40;9.43;;;5.10;53.70;;;;;;5048554;28;20467;-85
2023/03/12 06:25:38;;;;;;;16.13;10.90;;;5.00;53.80;;;;;;5021881;28;21854;-85
2023/03/12 06:28:05;;;;;;;12.13;8.40;;;5.00;54.40;;;;;;5040603;28;20433;-86
2023/03/12 06:30:32;;;;;;;19.90;8.93;;;4.90;54.30;;;;;;5042182;28;20436;-84
2023/03/12 06:32:59;;;;;;;13.93;9.00;;;4.70;54.50;;;;;;5031632;28;20507;-81
2023/03/12 06:35:26;;;;;;;14.03;9.07;;;4.80;54.90;;;;;;5036833;28;20440;-84
2023/03/12 06:37:53;;;;;;;15.07;8.53;;;4.90;54.50;;;;;;5058127;28;20524;-83
2023/03/12 06:40:20;;;;;;;14.47;9.43;;;4.90;54.70;;;;;;5042717;28;20444;-86
2023/03/12 06:42:48;;;;;;;15.77;8.60;;;4.90;54.40;;;;;;5056511;28;20897;-83
2023/03/12 06:45:15;;;;;;;12.17;8.73;;;4.70;55.00;;;;;;5041028;28;20477;-84
2023/03/12 06:47:43;;;;;;;13.30;8.97;;;4.60;55.50;;;;;;5075527;28;20440;-84
2023/03/12 06:50:11;;;;;;;11.80;8.03;;;4.60;55.40;;;;;;5048136;28;20515;-85
2023/03/12 06:52:39;;;;;;;14.83;9.07;;;4.70;55.50;;;;;;5031343;28;20456;-85
2023/03/12 06:55:07;;;;;;;12.03;9.30;;;5.00;55.00;;;;;;5048108;28;20460;-85
2023/03/12 06:57:33;;;;;;;13.90;9.33;;;4.80;54.50;;;;;;5064415;28;20463;-85
2023/03/12 07:00:02;;;;;;;11.27;8.57;;;4.80;55.00;;;;;;5063666;28;20698;-84
2023/03/12 07:02:29;;;;;;;13.63;8.30;;;4.70;55.10;;;;;;5039466;28;20448;-86
2023/03/12 07:04:56;;;;;;;13.20;8.60;;;4.70;55.40;;;;;;5048235;28;20482;-85
2023/03/12 07:07:23;;;;;;;15.10;9.10;;;4.80;55.30;;;;;;5067387;28;20530;-84
2023/03/12 07:09:50;;;;;;;13.17;8.60;;;5.10;55.00;;;;;;5049109;28;20984;-87
2023/03/12 07:12:17;;;;;;;12.53;8.27;;;5.10;55.00;;;;;;5043510;28;20617;-85
2023/03/12 07:14:44;;;;;;;15.47;8.90;;;5.20;54.60;;;;;;5048914;28;20471;-83
2023/03/12 07:17:12;;;;;;;14.53;9.03;;;5.40;54.40;;;;;;5056084;28;20459;-85
2023/03/12 07:19:39;;;;;;;15.10;8.73;;;5.50;53.90;;;;;;5043731;28;20448;-85
2023/03/12 07:22:06;;;;;;;15.00;9.10;;;5.30;53.90;;;;;;5036907;28;20539;-84
2023/03/12 07:24:33;;;;;;;14.03;9.13;;;5.20;54.40;;;;;;5067097;28;21215;-85
2023/03/12 07:27:00;;;;;;;19.13;11.03;;;5.30;54.40;;;;;;5038554;28;20448;-85
2023/03/12 07:29:27;;;;;;;14.80;9.90;;;5.40;54.50;;;;;;5035886;28;20456;-84
2023/03/12 07:31:54;;;;;;;16.87;9.03;;;5.20;54.20;;;;;;5055191;28;21019;-85
2023/03/12 07:34:22;;;;;;;17.27;12.33;;;5.00;55.00;;;;;;5068450;28;20476;-84
2023/03/12 07:36:49;;;;;;;16.23;9.30;;;5.20;55.30;;;;;;5053407;28;20494;-85
2023/03/12 07:39:16;;;;;;;13.93;10.13;;;5.20;55.10;;;;;;5027735;28;20459;-85
2023/03/12 07:41:44;;;;;;;14.10;10.40;;;5.00;55.20;;;;;;5052279;28;20461;-84
2023/03/12 07:44:11;;;;;;;18.73;9.60;;;4.90;55.70;;;;;;5028777;28;20467;-83
2023/03/12 07:46:38;;;;;;;16.83;9.70;;;4.80;56.00;;;;;;5035797;28;20544;-85
2023/03/12 07:49:06;;;;;;;12.43;8.77;;;5.00;56.00;;;;;;5036258;28;20452;-85
2023/03/12 07:51:35;;;;;;;19.20;11.30;;;5.30;55.30;;;;;;5050784;28;20957;-85
2023/03/12 07:54:02;;;;;;;25.63;11.67;;;5.50;54.70;;;;;;5041797;28;20474;-84
2023/03/12 07:56:34;;;;;;;26.13;14.67;;;5.50;54.80;;;;;;5036822;28;20826;-84
2023/03/12 07:59:01;;;;;;;17.10;9.20;;;5.60;54.20;;;;;;5036829;28;20452;-86
2023/03/12 08:01:31;;;;;;;20.70;9.40;;;5.80;53.90;;;;;;5044623;28;21045;-84
2023/03/12 08:03:58;;;;;;;17.20;11.50;;;5.80;53.70;;;;;;5053982;28;20985;-84
2023/03/12 08:06:25;;;;;;;15.80;8.40;;;5.60;53.90;;;;;;5052375;28;20511;-85
2023/03/12 08:08:53;;;;;;;13.10;8.80;;;5.40;54.30;;;;;;5061893;28;20445;-84
2023/03/12 08:11:21;;;;;;;12.73;9.23;;;5.20;55.00;;;;;;5027568;28;20883;-85
2023/03/12 08:13:48;;;;;;;14.27;9.70;;;5.20;55.10;;;;;;5047558;28;20518;-86
2023/03/12 08:16:15;;;;;;;14.93;8.73;;;5.30;55.00;;;;;;5026077;28;20520;-84
2023/03/12 08:18:43;;;;;;;13.27;8.90;;;5.20;54.20;;;;;;5023833;28;20994;-87
2023/03/12 08:21:10;;;;;;;21.70;9.27;;;5.30;54.90;;;;;;5039577;28;20477;-86
2023/03/12 08:23:37;;;;;;;12.97;8.50;;;5.20;54.80;;;;;;5033385;28;20590;-86
2023/03/12 08:26:05;;;;;;;19.00;11.33;;;5.40;55.00;;;;;;5041647;28;20471;-85
2023/03/12 08:28:32;;;;;;;18.67;10.23;;;5.70;54.80;;;;;;5036834;28;20456;-86
2023/03/12 08:31:01;;;;;;;17.70;9.50;;;5.90;54.50;;;;;;5038968;28;20488;-86
2023/03/12 08:33:28;;;;;;;14.00;9.90;;;5.80;53.70;;;;;;5035029;28;20464;-85
2023/03/12 08:35:55;;;;;;;18.67;10.37;;;5.60;54.30;;;;;;5025306;28;20648;-85
2023/03/12 08:38:22;;;;;;;14.17;10.67;;;5.80;54.60;;;;;;5041829;28;20446;-85
2023/03/12 08:40:56;;;;;;;16.90;10.90;;;5.70;54.50;;;;;;5042431;28;20476;-85
2023/03/12 08:43:24;;;;;;;19.30;11.80;;;5.60;54.90;;;;;;5022638;28;21367;-85
2023/03/12 08:45:54;;;;;;;22.67;13.30;;;5.50;55.60;;;;;;5026584;28;20535;-86
2023/03/12 08:48:21;;;;;;;16.90;11.10;;;5.60;56.20;;;;;;5050972;28;20444;-86
2023/03/12 08:50:48;;;;;;;13.83;9.10;;;5.80;56.00;;;;;;5039569;28;20452;-86
2023/03/12 08:53:15;;;;;;;28.20;12.13;;;5.90;56.00;;;;;;5021317;28;20559;-85
2023/03/12 08:55:42;;;;;;;17.73;11.27;;;6.20;55.40;;;;;;5065455;28;20920;-86
2023/03/12 08:58:09;;;;;;;20.60;11.47;;;6.20;55.50;;;;;;5026655;28;20475;-87
2023/03/12 09:00:37;;;;;;;17.43;11.10;;;6.10;54.70;;;;;;5022078;28;20451;-85
2023/03/12 09:03:04;;;;;;;26.50;10.90;;;6.20;55.60;;;;;;5027694;28;20572;-87
2023/03/12 09:05:32;;;;;;;20.93;10.77;;;6.20;55.50;;;;;;5054403;28;20468;-87
2023/03/12 09:07:59;;;;;;;17.53;10.83;;;6.00;55.80;;;;;;5043825;28;20445;-86
2023/03/12 09:10:26;;;;;;;16.33;10.17;;;5.90;56.90;;;;;;5044234;28;20961;-85
2023/03/12 09:12:53;;;;;;;21.70;10.30;;;6.10;57.10;;;;;;5066032;28;20564;-87
2023/03/12 09:15:20;;;;;;;18.00;10.60;;;6.20;56.90;;;;;;5058918;28;20452;-86
2023/03/12 09:17:49;;;;;;;31.60;16.77;;;6.10;56.60;;;;;;5041447;28;20443;-86
2023/03/12 09:20:16;;;;;;;16.13;10.10;;;6.10;57.10;;;;;;5038324;28;20479;-86
2023/03/12 09:22:44;;;;;;;23.20;9.47;;;6.00;57.40;;;;;;5063586;28;20497;-85
2023/03/12 09:25:12;;;;;;;13.90;9.50;;;6.10;57.30;;;;;;5045103;28;20533;-86
2023/03/12 09:27:40;;;;;;;18.40;10.00;;;6.00;57.50;;;;;;5065194;28;20977;-85
2023/03/12 09:30:10;;;;;;;13.30;10.07;;;5.80;57.80;;;;;;5030908;28;20441;-85
2023/03/12 09:32:38;;;;;;;24.63;11.23;;;5.80;57.80;;;;;;5047962;28;20968;-84
2023/03/12 09:35:07;;;;;;;20.43;10.83;;;5.70;58.60;;;;;;5032841;28;20464;-85
2023/03/12 09:37:36;;;;;;;18.50;11.60;;;5.90;58.50;;;;;;5056752;28;20448;-85
2023/03/12 09:40:07;;;;;;;22.27;13.50;;;6.00;58.60;;;;;;5047392;28;20858;-85
2023/03/12 09:42:43;;;;;;;23.20;12.57;;;6.20;57.50;;;;;;5028658;28;20504;-85
2023/03/12 09:45:18;;;;;;;15.97;11.27;;;6.30;57.80;;;;;;5030758;28;20458;-88
2023/03/12 09:47:49;;;;;;;17.50;12.20;;;6.50;57.30;;;;;;5040864;28;20479;-86
2023/03/12 09:50:24;;;;;;;19.07;11.27;;;6.70;57.20;;;;;;5059373;28;20440;-87
2023/03/12 09:52:57;;;;;;;17.63;11.07;;;6.50;57.20;;;;;;5051328;28;20463;-87
2023/03/12 09:55:25;;;;;;;17.83;11.63;;;6.10;58.10;;;;;;5042857;28;20509;-86
2023/03/12 09:57:54;;;;;;;20.00;12.27;;;6.20;59.10;;;;;;5033279;28;20538;-86
2023/03/12 10:00:24;;;;;;;20.73;10.97;;;6.20;58.70;;;;;;5029301;28;20556;-86
2023/03/12 10:03:30;;;;;;;18.33;12.13;;;6.10;58.70;;;;;;5053289;28;20816;-87
2023/03/12 10:06:10;;;;;;;24.00;12.23;;;6.10;58.70;;;;;;5035134;28;20499;-86
2023/03/12 10:08:50;;;;;;;18.13;11.23;;;6.10;59.00;;;;;;5033017;28;20960;-86
2023/03/12 10:11:29;;;;;;;20.77;13.20;;;5.90;59.70;;;;;;5056005;28;20919;-87
2023/03/12 10:14:15;;;;;;;35.63;20.70;;;5.90;60.20;;;;;;5024069;28;20471;-87
2023/03/12 10:16:57;;;;;;;49.20;25.97;;;5.90;60.60;;;;;;5054560;28;20441;-86
2023/03/12 10:19:41;;;;;;;20.67;13.57;;;6.10;60.60;;;;;;5045894;28;20448;-86
2023/03/12 10:22:18;;;;;;;20.67;12.07;;;6.40;59.90;;;;;;5050285;28;20525;-86
2023/03/12 10:24:56;;;;;;;14.97;11.40;;;6.70;59.80;;;;;;5029002;28;20467;-87
2023/03/12 10:27:27;;;;;;;22.17;13.87;;;6.90;58.90;;;;;;5032792;28;20475;-86
2023/03/12 10:29:55;;;;;;;23.63;13.03;;;7.10;58.40;;;;;;5022817;28;20460;-87
2023/03/12 10:32:30;;;;;;;23.10;15.37;;;6.90;58.50;;;;;;5022670;28;20456;-86
2023/03/12 10:35:00;;;;;;;20.10;13.93;;;6.90;59.60;;;;;;5030054;28;20456;-87
2023/03/12 10:37:31;;;;;;;20.60;15.03;;;7.00;59.20;;;;;;5055850;28;20441;-86
2023/03/12 10:39:59;;;;;;;28.50;17.40;;;7.00;58.60;;;;;;5038498;28;20542;-86
2023/03/12 10:42:28;;;;;;;22.70;14.60;;;7.20;58.90;;;;;;5068067;28;20444;-85
2023/03/12 10:44:59;;;;;;;18.23;13.33;;;7.30;58.70;;;;;;5061595;28;20452;-87
2023/03/12 10:47:35;;;;;;;29.00;16.03;;;7.00;58.80;;;;;;5051615;28;20564;-88
2023/03/12 10:50:15;;;;;;;24.57;15.30;;;7.00;59.50;;;;;;5039515;28;20451;-86
2023/03/12 10:52:44;;;;;;;21.10;14.43;;;6.90;59.50;;;;;;5028241;28;20452;-85
2023/03/12 10:55:19;;;;;;;24.97;15.10;;;7.00;59.60;;;;;;5056382;28;20946;-85
2023/03/12 10:57:46;;;;;;;24.03;14.80;;;7.10;59.30;;;;;;5054819;28;20452;-86
2023/03/12 11:00:19;;;;;;;24.97;13.40;;;7.10;59.60;;;;;;5055480;28;20488;-86
2023/03/12 11:02:54;;;;;;;22.17;16.40;;;7.10;59.60;;;;;;5037715;28;20467;-87
2023/03/12 11:05:24;;;;;;;25.93;15.20;;;6.90;60.00;;;;;;5052594;28;20518;-86
2023/03/12 11:07:52;;;;;;;22.77;13.87;;;6.80;60.30;;;;;;5051148;28;20470;-86
2023/03/12 11:10:23;;;;;;;31.90;18.20;;;6.60;61.10;;;;;;5071611;28;20449;-86
2023/03/12 11:13:02;;;;;;;20.57;12.07;;;6.60;61.20;;;;;;5068658;28;20485;-86
2023/03/12 11:15:37;;;;;;;21.37;12.90;;;6.80;61.40;;;;;;5037183;28;20468;-84
2023/03/12 11:18:32;;;;;;;37.80;20.60;;;6.90;61.00;;;;;;5037184;28;20457;-84
2023/03/12 11:21:17;;;;;;;20.53;12.70;;;7.00;60.70;;;;;;5038871;28;20439;-84
2023/03/12 11:24:03;;;;;;;18.43;12.80;;;7.10;60.60;;;;;;5028328;28;20467;-85
2023/03/12 11:26:36;;;;;;;20.80;13.20;;;7.00;60.70;;;;;;5020624;28;21130;-84
2023/03/12 11:29:11;;;;;;;19.30;12.83;;;7.00;61.70;;;;;;5022107;28;20451;-85
2023/03/12 11:31:43;;;;;;;17.77;11.83;;;7.20;61.20;;;;;;5028594;28;20439;-85
2023/03/12 11:34:20;;;;;;;20.23;11.47;;;7.30;61.70;;;;;;5023952;28;20472;-87
2023/03/12 11:36:56;;;;;;;20.63;11.47;;;7.30;61.30;;;;;;5036118;28;20456;-84
2023/03/12 11:39:33;;;;;;;24.37;14.00;;;7.30;61.70;;;;;;5027165;28;20443;-85
2023/03/12 11:42:13;;;;;;;23.67;14.93;;;7.40;62.20;;;;;;5043722;28;20491;-82
2023/03/12 11:44:51;;;;;;;21.63;14.07;;;7.40;61.90;;;;;;5025211;28;20467;-84
2023/03/12 11:47:37;;;;;;;25.80;15.20;;;7.40;61.90;;;;;;5026881;28;20463;-84
2023/03/12 11:50:25;;;;;;;17.53;13.30;;;7.60;62.00;;;;;;5027200;28;20447;-84
2023/03/12 11:53:19;;;;;;;27.03;14.67;;;7.50;62.30;;;;;;5016115;28;20487;-84
2023/03/12 11:56:00;;;;;;;17.10;12.20;;;7.70;62.20;;;;;;5020016;28;20551;-84
2023/03/12 11:58:42;;;;;;;22.03;13.40;;;7.80;61.60;;;;;;5021024;28;20451;-85
2023/03/12 12:01:13;;;;;;;18.63;12.60;;;7.90;62.10;;;;;;5028655;28;20510;-85
2023/03/12 12:04:25;;;;;;;20.43;12.97;;;8.00;61.30;;;;;;5026376;28;20475;-85
2023/03/12 12:07:04;;;;;;;22.63;11.73;;;8.00;61.80;;;;;;4992852;28;20476;-85
2023/03/12 12:09:39;;;;;;;20.00;12.27;;;8.00;62.40;;;;;;5024026;28;20787;-85
2023/03/12 12:12:22;;;;;;;20.90;12.30;;;8.10;62.40;;;;;;5056460;28;20926;-86
2023/03/12 12:15:00;;;;;;;18.10;11.97;;;8.40;62.30;;;;;;5028812;28;20938;-86
2023/03/12 12:17:38;;;;;;;20.93;13.70;;;8.40;63.00;;;;;;5036860;28;20536;-87
2023/03/12 12:20:28;;;;;;;22.30;14.47;;;8.50;62.70;;;;;;5054308;28;20444;-86
2023/03/12 12:23:09;;;;;;;23.37;14.97;;;8.80;63.10;;;;;;5020915;28;20494;-86
2023/03/12 12:26:01;;;;;;;20.00;12.67;;;9.00;62.90;;;;;;5023164;28;20513;-86
2023/03/12 12:28:47;;;;;;;38.53;19.20;;;9.10;62.90;;;;;;5042496;28;20436;-86
2023/03/12 12:31:30;;;;;;;29.67;13.23;;;9.10;62.40;;;;;;5053544;28;20443;-86
2023/03/12 12:34:21;;;;;;;17.80;10.60;;;9.20;62.40;;;;;;5035974;28;20479;-87
2023/03/12 12:36:51;;;;;;;15.17;10.53;;;9.30;62.70;;;;;;5036767;28;20456;-86
2023/03/12 12:39:29;;;;;;;20.90;12.30;;;9.40;63.40;;;;;;5050788;28;20441;-86
2023/03/12 12:42:02;;;;;;;19.50;11.73;;;9.40;64.60;;;;;;5037540;28;20468;-87
2023/03/12 12:44:38;;;;;;;17.90;11.83;;;9.70;64.60;;;;;;5019013;28;20883;-87
2023/03/12 12:47:12;;;;;;;20.27;9.50;;;9.80;64.00;;;;;;5026876;28;20813;-86
2023/03/12 12:49:46;;;;;;;17.53;9.50;;;9.90;64.60;;;;;;5050405;28;20885;-86
2023/03/12 12:52:15;;;;;;;13.00;9.60;;;9.90;64.70;;;;;;5053665;28;20448;-87
2023/03/12 12:54:54;;;;;;;16.90;11.40;;;10.00;63.60;;;;;;5042934;28;20464;-87
2023/03/12 12:57:27;;;;;;;15.87;10.27;;;10.10;64.00;;;;;;5067959;28;20436;-87
2023/03/12 13:00:13;;;;;;;11.40;7.70;;;10.30;64.10;;;;;;5027056;28;20537;-86